createdAt,value
2018-11-03T09:02:23.102Z,100.00
2018-11-03T09:07:24.549Z,100.00
2018-11-03T09:12:25.917Z,100.00
2018-11-03T09:17:27.393Z,100.00
2018-11-03T09:22:30.066Z,100.00
2018-11-03T09:27:31.521Z,100.00
2018-11-03T09:32:33.961Z,100.00
2018-11-03T09:37:37.437Z,100.00
2018-11-03T09:42:38.467Z,100.00
2018-11-03T09:47:40.000Z,100.00
2018-11-03T09:52:41.376Z,100.00
2018-11-03T09:57:42.936Z,100.00
2018-11-03T10:02:44.906Z,100.00
2018-11-03T10:07:46.534Z,100.00
2018-11-03T10:12:48.107Z,100.00
2018-11-03T10:17:49.614Z,100.00
2018-11-03T10:22:51.172Z,100.00
2018-11-03T10:27:52.482Z,100.00
2018-11-03T10:32:53.892Z,100.00
2018-11-03T10:37:55.253Z,100.00
2018-11-03T10:42:56.659Z,100.00
2018-11-03T10:47:58.085Z,100.00
2018-11-03T10:52:59.466Z,100.00
2018-11-03T10:58:00.924Z,100.00
2018-11-03T11:03:02.386Z,100.00
2018-11-03T11:12:33.239Z,100.00
2018-11-03T11:17:33.900Z,100.00
2018-11-03T11:22:34.591Z,99.54
2018-11-03T11:33:01.438Z,98.47
2018-11-03T11:45:47.186Z,97.20
2018-11-03T11:50:48.706Z,99.22
2018-11-03T11:55:50.104Z,94.48
2018-11-03T12:00:51.510Z,92.99
2018-11-03T12:05:52.845Z,89.27
2018-11-03T12:10:54.217Z,87.03
2018-11-03T12:15:55.732Z,86.88
2018-11-03T12:20:57.273Z,88.07
2018-11-03T12:25:58.727Z,87.49
2018-11-03T12:31:00.101Z,91.07
2018-11-03T12:36:01.514Z,88.37
2018-11-03T12:41:03.074Z,85.99
2018-11-03T12:46:04.574Z,85.81
2018-11-03T12:51:06.079Z,83.98
2018-11-03T12:56:07.640Z,81.76
2018-11-03T13:01:13.125Z,81.48
2018-11-03T13:16:43.809Z,80.24
2018-11-03T13:21:44.739Z,79.70
2018-11-03T13:26:45.615Z,79.53
2018-11-03T13:31:50.262Z,79.17
2018-11-03T13:36:58.813Z,79.20
2018-11-03T13:42:03.246Z,79.05
2018-11-03T13:47:07.961Z,77.75
2018-11-03T13:57:16.686Z,77.57
2018-11-03T14:02:22.608Z,79.46
2018-11-03T14:07:23.507Z,77.56
2018-11-03T14:12:24.341Z,77.59
2018-11-03T14:17:25.194Z,77.92
2018-11-03T14:22:26.024Z,77.20
2018-11-03T14:42:39.119Z,78.33
2018-11-03T14:47:40.567Z,79.51
2018-11-03T14:52:41.963Z,78.04
2018-11-03T14:57:44.263Z,77.10
2018-11-03T15:02:45.824Z,78.17
2018-11-03T15:07:47.338Z,79.33
2018-11-03T15:12:48.812Z,78.77
2018-11-03T15:17:50.301Z,79.09
2018-11-03T15:22:51.253Z,79.75
2018-11-03T15:27:52.738Z,79.87
2018-11-03T15:32:54.191Z,78.07
2018-11-03T15:37:55.690Z,75.98
2018-11-03T15:42:57.165Z,76.13
2018-11-03T15:47:58.862Z,84.91
2018-11-03T15:53:01.121Z,86.74
2018-11-03T15:58:02.636Z,91.09
2018-11-03T16:03:06.305Z,91.75
2018-11-03T16:08:08.605Z,94.74
2018-11-03T16:13:10.141Z,96.89
2018-11-03T16:18:11.506Z,96.84
2018-11-03T16:23:13.004Z,98.54
2018-11-03T16:28:14.487Z,99.78
2018-11-03T16:33:16.012Z,100.00
2018-11-03T16:38:17.529Z,100.00
2018-11-03T16:43:18.963Z,100.00
2018-11-03T16:48:20.433Z,100.00
2018-11-03T16:53:21.890Z,100.00
2018-11-03T16:58:23.388Z,100.00
2018-11-03T17:03:24.805Z,100.00
2018-11-03T17:08:26.269Z,100.00
2018-11-03T17:13:27.275Z,100.00
2018-11-03T17:18:28.898Z,100.00
2018-11-03T17:23:30.463Z,100.00
2018-11-03T17:34:12.339Z,100.00
2018-11-03T17:39:14.183Z,100.00
2018-11-03T17:44:15.351Z,100.00
2018-11-03T17:49:20.809Z,100.00
2018-11-03T17:54:22.897Z,100.00
2018-11-03T17:59:26.030Z,100.00
2018-11-03T18:04:31.184Z,100.00
2018-11-03T18:09:34.369Z,100.00
2018-11-03T18:14:37.063Z,100.00
2018-11-03T18:19:38.850Z,100.00
2018-11-03T18:24:42.202Z,100.00
2018-11-03T18:29:43.796Z,100.00
2018-11-03T18:34:53.225Z,100.00
2018-11-03T18:39:58.783Z,100.00
2018-11-03T18:45:01.179Z,100.00
2018-11-03T18:50:06.273Z,100.00
2018-11-03T18:55:07.909Z,100.00
2018-11-03T19:00:11.435Z,100.00
2018-11-03T19:10:24.040Z,100.00
2018-11-03T19:15:27.730Z,100.00
2018-11-03T19:20:32.137Z,100.00
2018-11-03T19:25:41.758Z,100.00
2018-11-03T19:30:42.606Z,100.00
2018-11-03T19:35:44.916Z,100.00
2018-11-03T19:40:47.035Z,100.00
2018-11-03T19:51:03.626Z,100.00
2018-11-03T19:56:08.882Z,100.00
2018-11-03T20:11:45.750Z,100.00
2018-11-03T20:16:47.037Z,100.00
2018-11-03T20:21:47.885Z,100.00
2018-11-03T20:26:48.768Z,100.00
2018-11-03T20:31:50.532Z,100.00
2018-11-03T20:36:52.524Z,100.00
2018-11-03T20:41:57.309Z,100.00
2018-11-03T20:52:12.034Z,100.00
2018-11-03T20:57:15.234Z,100.00
2018-11-03T21:02:15.806Z,100.00
2018-11-03T21:07:16.430Z,100.00
2018-11-03T21:12:17.107Z,100.00
2018-11-03T21:22:28.980Z,100.00
2018-11-03T21:27:30.059Z,100.00
2018-11-03T21:32:30.752Z,100.00
2018-11-03T21:37:32.189Z,100.00
2018-11-03T21:42:35.484Z,100.00
2018-11-03T21:47:39.265Z,100.00
2018-11-03T21:52:43.541Z,100.00
2018-11-03T21:57:44.189Z,100.00
2018-11-03T22:02:45.692Z,100.00
2018-11-03T22:07:50.307Z,100.00
2018-11-03T22:12:54.371Z,100.00
2018-11-03T22:18:02.542Z,100.00
2018-11-03T22:23:06.154Z,100.00
2018-11-03T22:28:09.242Z,100.00
2018-11-03T22:33:16.209Z,100.00
2018-11-03T22:43:22.771Z,100.00
2018-11-03T22:48:24.548Z,100.00
2018-11-03T22:53:26.398Z,100.00
2018-11-03T22:58:28.024Z,100.00
2018-11-03T23:03:31.585Z,100.00
2018-11-03T23:13:44.670Z,100.00
2018-11-03T23:18:51.767Z,100.00
2018-11-03T23:23:55.076Z,100.00
2018-11-03T23:29:04.522Z,100.00
2018-11-03T23:34:11.187Z,100.00
2018-11-03T23:39:13.473Z,100.00
2018-11-03T23:44:16.300Z,100.00
2018-11-03T23:49:22.110Z,100.00
2018-11-03T23:54:26.177Z,100.00
2018-11-03T23:59:32.994Z,100.00
